Terminal Aerodrome Forecast
Issued by NWS

Home | Current Version | Previous Version | Text Only | Print | Product List | Glossary On
Versions: 1 2 3 4 5 6 7 8 9 10 11 12 13 14 15 16 17 18 19 20 21 22
000
FTUS43 KILX 010303 AAB
TAFCMI
TAF AMD
KCMI 010303Z 0103/0124 03010KT P6SM -RA SCT015 OVC050
      TEMPO 0103/0106 5SM -RA BR BKN008 OVC015
     FM010600 34005KT 4SM BR VCSH SCT003 OVC008
     FM010900 34004KT 3/4SM -DZ BR OVC003
     FM011700 29005KT P6SM BKN015 OVC045=

USA.gov is the U.S. government's official web portal to all federal, state and local government web resources and services.